KCAO/CAO METAR and TAF weather

Enter ICAO airport designator
Station Type Date Time Source
KCAO METAR 2020/06/06 18:55 UTC NOAA

KCAO 061855Z AUTO 17027G41KT 10SM CLR 33/06 A2999 RMK AO2 PK WND 17041/1853 SLP069 T03330056


Station Type Date Time Source
KCAO Decoded METAR 2020/06/06 18:55 UTC NOAA

CLAYTON MUNICIPAL AIRPARK, NM, United States (KCAO) 36-27N 103-09W 1514M
Jun 06, 2020 - 02:55 PM EDT / 2020.06.06 1855 UTC
Wind: from the S (170 degrees) at 31 MPH (27 KT) gusting to 47 MPH (41 KT):0
Visibility: 10 mile(s):0
Sky conditions: clear
Temperature: 91.9 F (33.3 C)
Dew Point: 42.1 F (5.6 C)
Relative Humidity: 17%
Pressure (altimeter): 29.99 in. Hg (1015 hPa)
ob: KCAO 061855Z AUTO 17027G41KT 10SM CLR 33/06 A2999 RMK AO2 PK WND 17041/1853 SLP069 T03330056
cycle: 19

Station Type Date Time Source
KCAO TAF UTC NOAA

Error!

Example: see airport list